sensor_id;sensor_type;location;lat;lon;timestamp;temperature;humidity
28761;DHT22;15917;50.014;8.352;2022-11-15T00:01:18;9.50;99.90
28761;DHT22;15917;50.014;8.352;2022-11-15T00:04:04;9.50;99.90
28761;DHT22;15917;50.014;8.352;2022-11-15T00:06:48;9.50;99.90
28761;DHT22;15917;50.014;8.352;2022-11-15T00:09:31;9.50;99.90
28761;DHT22;15917;50.014;8.352;2022-11-15T00:12:16;9.50;99.90
28761;DHT22;15917;50.014;8.352;2022-11-15T00:15:00;9.50;99.90
28761;DHT22;15917;50.014;8.352;2022-11-15T00:17:48;9.50;99.90
28761;DHT22;15917;50.014;8.352;2022-11-15T00:20:36;9.50;99.90
28761;DHT22;15917;50.014;8.352;2022-11-15T00:23:20;9.40;99.90
28761;DHT22;15917;50.014;8.352;2022-11-15T00:26:04;9.40;99.90
28761;DHT22;15917;50.014;8.352;2022-11-15T00:28:48;9.40;99.90
28761;DHT22;15917;50.014;8.352;2022-11-15T00:31:35;9.40;99.90
28761;DHT22;15917;50.014;8.352;2022-11-15T00:34:19;9.40;99.90
28761;DHT22;15917;50.014;8.352;2022-11-15T00:37:03;9.40;99.90
28761;DHT22;15917;50.014;8.352;2022-11-15T00:39:47;9.40;99.90
28761;DHT22;15917;50.014;8.352;2022-11-15T00:42:31;9.40;99.90
28761;DHT22;15917;50.014;8.352;2022-11-15T00:45:15;9.40;99.90
28761;DHT22;15917;50.014;8.352;2022-11-15T00:47:59;9.40;99.90
28761;DHT22;15917;50.014;8.352;2022-11-15T00:50:43;9.40;99.90
28761;DHT22;15917;50.014;8.352;2022-11-15T00:53:27;9.40;99.90
28761;DHT22;15917;50.014;8.352;2022-11-15T00:56:11;9.40;99.90
28761;DHT22;15917;50.014;8.352;2022-11-15T00:58:55;9.40;99.90
28761;DHT22;15917;50.014;8.352;2022-11-15T01:01:39;9.40;99.90
28761;DHT22;15917;50.014;8.352;2022-11-15T01:04:23;9.40;99.90
28761;DHT22;15917;50.014;8.352;2022-11-15T01:07:07;9.40;99.90
28761;DHT22;15917;50.014;8.352;2022-11-15T01:09:51;9.40;99.90
28761;DHT22;15917;50.014;8.352;2022-11-15T01:12:36;9.30;99.90
28761;DHT22;15917;50.014;8.352;2022-11-15T01:15:20;9.30;99.90
28761;DHT22;15917;50.014;8.352;2022-11-15T01:18:04;9.40;99.90
28761;DHT22;15917;50.014;8.352;2022-11-15T01:20:48;9.40;99.90
28761;DHT22;15917;50.014;8.352;2022-11-15T01:23:32;9.30;99.90
28761;DHT22;15917;50.014;8.352;2022-11-15T01:26:16;9.30;99.90
28761;DHT22;15917;50.014;8.352;2022-11-15T01:29:00;9.30;99.90
28761;DHT22;15917;50.014;8.352;2022-11-15T01:31:44;9.30;99.90
28761;DHT22;15917;50.014;8.352;2022-11-15T01:34:28;9.30;99.90
28761;DHT22;15917;50.014;8.352;2022-11-15T01:37:12;9.30;99.90
28761;DHT22;15917;50.014;8.352;2022-11-15T01:39:56;9.30;99.90
28761;DHT22;15917;50.014;8.352;2022-11-15T01:42:40;9.30;99.90
28761;DHT22;15917;50.014;8.352;2022-11-15T01:45:24;9.30;99.90
28761;DHT22;15917;50.014;8.352;2022-11-15T01:48:10;9.30;99.90
28761;DHT22;15917;50.014;8.352;2022-11-15T01:50:55;9.30;99.90
28761;DHT22;15917;50.014;8.352;2022-11-15T01:53:41;9.40;99.90
28761;DHT22;15917;50.014;8.352;2022-11-15T01:56:29;9.40;99.90
28761;DHT22;15917;50.014;8.352;2022-11-15T01:59:15;9.40;99.90
28761;DHT22;15917;50.014;8.352;2022-11-15T02:01:59;9.40;99.90
28761;DHT22;15917;50.014;8.352;2022-11-15T02:04:46;9.40;99.90
28761;DHT22;15917;50.014;8.352;2022-11-15T02:07:31;9.40;99.90
28761;DHT22;15917;50.014;8.352;2022-11-15T02:10:22;9.40;99.90
28761;DHT22;15917;50.014;8.352;2022-11-15T02:13:07;9.40;99.90
28761;DHT22;15917;50.014;8.352;2022-11-15T02:18:59;9.40;99.90
28761;DHT22;15917;50.014;8.352;2022-11-15T02:25:39;9.40;99.90
28761;DHT22;15917;50.014;8.352;2022-11-15T02:28:21;9.40;99.90
28761;DHT22;15917;50.014;8.352;2022-11-15T02:34:31;9.40;99.90
28761;DHT22;15917;50.014;8.352;2022-11-15T02:38:11;9.40;99.90
28761;DHT22;15917;50.014;8.352;2022-11-15T02:40:44;9.40;99.90
28761;DHT22;15917;50.014;8.352;2022-11-15T02:43:36;9.40;99.90
28761;DHT22;15917;50.014;8.352;2022-11-15T02:46:57;9.40;99.90
28761;DHT22;15917;50.014;8.352;2022-11-15T02:50:00;9.40;99.90
28761;DHT22;15917;50.014;8.352;2022-11-15T02:52:46;9.40;99.90
28761;DHT22;15917;50.014;8.352;2022-11-15T02:55:34;9.40;99.90
28761;DHT22;15917;50.014;8.352;2022-11-15T02:58:38;9.40;99.90
28761;DHT22;15917;50.014;8.352;2022-11-15T03:07:39;9.50;99.90
28761;DHT22;15917;50.014;8.352;2022-11-15T03:10:52;9.50;99.90
28761;DHT22;15917;50.014;8.352;2022-11-15T03:17:19;9.50;99.90
28761;DHT22;15917;50.014;8.352;2022-11-15T03:20:07;9.60;99.90
28761;DHT22;15917;50.014;8.352;2022-11-15T03:22:54;9.60;99.90
28761;DHT22;15917;50.014;8.352;2022-11-15T03:25:43;9.60;99.90
28761;DHT22;15917;50.014;8.352;2022-11-15T03:28:54;9.60;99.90
28761;DHT22;15917;50.014;8.352;2022-11-15T03:31:43;9.60;99.90
28761;DHT22;15917;50.014;8.352;2022-11-15T03:34:42;9.70;99.90
28761;DHT22;15917;50.014;8.352;2022-11-15T03:37:40;9.70;99.90
28761;DHT22;15917;50.014;8.352;2022-11-15T03:40:47;9.70;99.90
28761;DHT22;15917;50.014;8.352;2022-11-15T03:46:46;9.80;99.90
28761;DHT22;15917;50.014;8.352;2022-11-15T03:49:34;9.80;99.90
28761;DHT22;15917;50.014;8.352;2022-11-15T03:52:20;9.80;99.90
28761;DHT22;15917;50.014;8.352;2022-11-15T03:55:07;9.80;99.90
28761;DHT22;15917;50.014;8.352;2022-11-15T03:57:55;9.80;99.90
28761;DHT22;15917;50.014;8.352;2022-11-15T04:00:41;9.80;99.90
28761;DHT22;15917;50.014;8.352;2022-11-15T04:03:26;9.90;99.90
28761;DHT22;15917;50.014;8.352;2022-11-15T04:06:10;9.90;99.90
28761;DHT22;15917;50.014;8.352;2022-11-15T04:08:54;9.90;99.90
28761;DHT22;15917;50.014;8.352;2022-11-15T04:11:38;9.90;99.90
28761;DHT22;15917;50.014;8.352;2022-11-15T04:14:22;10.00;99.90
28761;DHT22;15917;50.014;8.352;2022-11-15T04:17:06;10.00;99.90
28761;DHT22;15917;50.014;8.352;2022-11-15T04:19:50;10.00;99.90
28761;DHT22;15917;50.014;8.352;2022-11-15T04:22:58;10.00;99.90
28761;DHT22;15917;50.014;8.352;2022-11-15T04:26:04;10.10;99.90
28761;DHT22;15917;50.014;8.352;2022-11-15T04:28:48;10.10;99.90
28761;DHT22;15917;50.014;8.352;2022-11-15T04:31:51;10.20;99.90
28761;DHT22;15917;50.014;8.352;2022-11-15T04:34:35;10.20;99.90
28761;DHT22;15917;50.014;8.352;2022-11-15T04:37:19;10.20;99.90
28761;DHT22;15917;50.014;8.352;2022-11-15T04:40:04;10.20;99.90
28761;DHT22;15917;50.014;8.352;2022-11-15T04:42:48;10.20;99.90
28761;DHT22;15917;50.014;8.352;2022-11-15T04:45:33;10.30;99.90
28761;DHT22;15917;50.014;8.352;2022-11-15T04:48:18;10.30;99.90
28761;DHT22;15917;50.014;8.352;2022-11-15T04:51:02;10.30;99.90
28761;DHT22;15917;50.014;8.352;2022-11-15T04:53:47;10.30;99.90
28761;DHT22;15917;50.014;8.352;2022-11-15T04:56:31;10.30;99.90
28761;DHT22;15917;50.014;8.352;2022-11-15T04:59:15;10.30;99.90
28761;DHT22;15917;50.014;8.352;2022-11-15T05:01:59;10.30;99.90
28761;DHT22;15917;50.014;8.352;2022-11-15T05:04:43;10.30;99.90
28761;DHT22;15917;50.014;8.352;2022-11-15T05:07:27;10.30;99.90
28761;DHT22;15917;50.014;8.352;2022-11-15T05:10:12;10.30;99.90
28761;DHT22;15917;50.014;8.352;2022-11-15T05:12:55;10.30;99.90
28761;DHT22;15917;50.014;8.352;2022-11-15T05:15:39;10.30;99.90
28761;DHT22;15917;50.014;8.352;2022-11-15T05:18:24;10.30;99.90
28761;DHT22;15917;50.014;8.352;2022-11-15T05:21:10;10.30;99.90
28761;DHT22;15917;50.014;8.352;2022-11-15T05:23:55;10.40;99.90
28761;DHT22;15917;50.014;8.352;2022-11-15T05:26:39;10.30;99.90
28761;DHT22;15917;50.014;8.352;2022-11-15T05:29:23;10.30;99.90
28761;DHT22;15917;50.014;8.352;2022-11-15T05:32:08;10.30;99.90
28761;DHT22;15917;50.014;8.352;2022-11-15T05:34:52;10.30;99.90
28761;DHT22;15917;50.014;8.352;2022-11-15T05:37:36;10.20;99.90
28761;DHT22;15917;50.014;8.352;2022-11-15T05:40:21;10.30;99.90
28761;DHT22;15917;50.014;8.352;2022-11-15T05:43:06;10.30;99.90
28761;DHT22;15917;50.014;8.352;2022-11-15T05:45:50;10.30;99.90
28761;DHT22;15917;50.014;8.352;2022-11-15T05:48:36;10.30;99.90
28761;DHT22;15917;50.014;8.352;2022-11-15T05:51:22;10.30;99.90
28761;DHT22;15917;50.014;8.352;2022-11-15T05:54:06;10.30;99.90
28761;DHT22;15917;50.014;8.352;2022-11-15T05:56:51;10.30;99.90
28761;DHT22;15917;50.014;8.352;2022-11-15T05:59:36;10.30;99.90
28761;DHT22;15917;50.014;8.352;2022-11-15T06:02:20;10.30;99.90
28761;DHT22;15917;50.014;8.352;2022-11-15T06:05:05;10.30;99.90
28761;DHT22;15917;50.014;8.352;2022-11-15T06:07:49;10.30;99.90
28761;DHT22;15917;50.014;8.352;2022-11-15T06:10:33;10.30;99.90
28761;DHT22;15917;50.014;8.352;2022-11-15T06:13:17;10.40;99.90
28761;DHT22;15917;50.014;8.352;2022-11-15T06:16:01;10.40;99.90
28761;DHT22;15917;50.014;8.352;2022-11-15T06:18:46;10.40;99.90
28761;DHT22;15917;50.014;8.352;2022-11-15T06:21:30;10.40;99.90
28761;DHT22;15917;50.014;8.352;2022-11-15T06:24:14;10.40;99.90
28761;DHT22;15917;50.014;8.352;2022-11-15T06:26:58;10.30;99.90
28761;DHT22;15917;50.014;8.352;2022-11-15T06:29:43;10.30;99.90
28761;DHT22;15917;50.014;8.352;2022-11-15T06:32:28;10.30;99.90
28761;DHT22;15917;50.014;8.352;2022-11-15T06:35:13;10.30;99.90
28761;DHT22;15917;50.014;8.352;2022-11-15T06:38:06;10.30;99.90
28761;DHT22;15917;50.014;8.352;2022-11-15T06:40:50;10.30;99.90
28761;DHT22;15917;50.014;8.352;2022-11-15T06:43:35;10.20;99.90
28761;DHT22;15917;50.014;8.352;2022-11-15T06:46:20;10.20;99.90
28761;DHT22;15917;50.014;8.352;2022-11-15T06:49:04;10.20;99.90
28761;DHT22;15917;50.014;8.352;2022-11-15T06:51:48;10.20;99.90
28761;DHT22;15917;50.014;8.352;2022-11-15T06:54:32;10.20;99.90
28761;DHT22;15917;50.014;8.352;2022-11-15T06:57:16;10.20;99.90
28761;DHT22;15917;50.014;8.352;2022-11-15T07:00:01;10.20;99.90
28761;DHT22;15917;50.014;8.352;2022-11-15T07:02:46;10.20;99.90
28761;DHT22;15917;50.014;8.352;2022-11-15T07:05:30;10.20;99.90
28761;DHT22;15917;50.014;8.352;2022-11-15T07:08:14;10.20;99.90
28761;DHT22;15917;50.014;8.352;2022-11-15T07:11:00;10.30;99.90
28761;DHT22;15917;50.014;8.352;2022-11-15T07:13:46;10.30;99.90
28761;DHT22;15917;50.014;8.352;2022-11-15T07:16:30;10.40;99.90
28761;DHT22;15917;50.014;8.352;2022-11-15T07:19:14;10.50;99.90
28761;DHT22;15917;50.014;8.352;2022-11-15T07:21:58;10.40;99.90
28761;DHT22;15917;50.014;8.352;2022-11-15T07:24:42;10.50;99.90
28761;DHT22;15917;50.014;8.352;2022-11-15T07:27:26;10.50;99.90
28761;DHT22;15917;50.014;8.352;2022-11-15T07:30:11;10.50;99.90
28761;DHT22;15917;50.014;8.352;2022-11-15T07:32:59;10.60;99.90
28761;DHT22;15917;50.014;8.352;2022-11-15T07:35:44;10.70;99.90
28761;DHT22;15917;50.014;8.352;2022-11-15T07:38:30;10.60;99.90
28761;DHT22;15917;50.014;8.352;2022-11-15T07:41:14;10.70;99.90
28761;DHT22;15917;50.014;8.352;2022-11-15T07:43:58;10.70;99.90
28761;DHT22;15917;50.014;8.352;2022-11-15T07:46:42;10.60;99.90
28761;DHT22;15917;50.014;8.352;2022-11-15T07:49:26;10.60;99.90
28761;DHT22;15917;50.014;8.352;2022-11-15T07:52:10;10.70;99.90
28761;DHT22;15917;50.014;8.352;2022-11-15T07:54:54;10.70;99.90
28761;DHT22;15917;50.014;8.352;2022-11-15T07:57:39;10.80;99.90
28761;DHT22;15917;50.014;8.352;2022-11-15T08:00:23;10.80;99.90
28761;DHT22;15917;50.014;8.352;2022-11-15T08:03:12;10.80;99.90
28761;DHT22;15917;50.014;8.352;2022-11-15T08:05:57;10.90;99.90
28761;DHT22;15917;50.014;8.352;2022-11-15T08:08:40;10.90;99.90
28761;DHT22;15917;50.014;8.352;2022-11-15T08:11:24;10.90;99.90
28761;DHT22;15917;50.014;8.352;2022-11-15T08:14:08;10.90;99.90
28761;DHT22;15917;50.014;8.352;2022-11-15T08:16:54;11.00;99.90
28761;DHT22;15917;50.014;8.352;2022-11-15T08:19:38;11.00;99.90
28761;DHT22;15917;50.014;8.352;2022-11-15T08:22:22;11.00;99.90
28761;DHT22;15917;50.014;8.352;2022-11-15T08:25:06;11.00;99.90
28761;DHT22;15917;50.014;8.352;2022-11-15T08:27:53;11.00;99.90
28761;DHT22;15917;50.014;8.352;2022-11-15T08:30:39;11.00;99.90
28761;DHT22;15917;50.014;8.352;2022-11-15T08:33:26;11.00;99.90
28761;DHT22;15917;50.014;8.352;2022-11-15T08:36:16;11.00;99.90
28761;DHT22;15917;50.014;8.352;2022-11-15T08:39:00;11.00;99.90
28761;DHT22;15917;50.014;8.352;2022-11-15T08:41:44;11.00;99.90
28761;DHT22;15917;50.014;8.352;2022-11-15T08:44:28;10.90;99.90
28761;DHT22;15917;50.014;8.352;2022-11-15T08:47:13;10.90;99.90
28761;DHT22;15917;50.014;8.352;2022-11-15T08:49:57;10.90;99.90
28761;DHT22;15917;50.014;8.352;2022-11-15T08:52:42;11.00;99.90
28761;DHT22;15917;50.014;8.352;2022-11-15T08:55:26;11.00;99.90
28761;DHT22;15917;50.014;8.352;2022-11-15T08:58:10;11.00;99.90
28761;DHT22;15917;50.014;8.352;2022-11-15T09:00:54;11.00;99.90
28761;DHT22;15917;50.014;8.352;2022-11-15T09:03:40;11.00;99.90
28761;DHT22;15917;50.014;8.352;2022-11-15T09:06:24;11.00;99.90
28761;DHT22;15917;50.014;8.352;2022-11-15T09:09:08;11.10;99.90
28761;DHT22;15917;50.014;8.352;2022-11-15T09:11:52;11.10;99.90
28761;DHT22;15917;50.014;8.352;2022-11-15T09:14:37;11.10;99.90
28761;DHT22;15917;50.014;8.352;2022-11-15T09:17:21;11.10;99.90
28761;DHT22;15917;50.014;8.352;2022-11-15T09:20:05;11.20;99.90
28761;DHT22;15917;50.014;8.352;2022-11-15T09:22:50;11.20;99.90
28761;DHT22;15917;50.014;8.352;2022-11-15T09:25:34;11.30;99.90
28761;DHT22;15917;50.014;8.352;2022-11-15T09:28:18;11.30;99.90
28761;DHT22;15917;50.014;8.352;2022-11-15T09:31:04;11.30;99.90
28761;DHT22;15917;50.014;8.352;2022-11-15T09:33:48;11.20;99.90
28761;DHT22;15917;50.014;8.352;2022-11-15T09:36:34;11.20;99.90
28761;DHT22;15917;50.014;8.352;2022-11-15T09:39:18;11.20;99.90
28761;DHT22;15917;50.014;8.352;2022-11-15T09:42:12;11.30;99.90
28761;DHT22;15917;50.014;8.352;2022-11-15T09:51:12;11.30;99.90
28761;DHT22;15917;50.014;8.352;2022-11-15T09:53:49;11.40;99.90
28761;DHT22;15917;50.014;8.352;2022-11-15T09:56:22;11.40;99.90
28761;DHT22;15917;50.014;8.352;2022-11-15T10:04:15;11.40;99.90
28761;DHT22;15917;50.014;8.352;2022-11-15T10:06:46;11.40;99.90
28761;DHT22;15917;50.014;8.352;2022-11-15T10:09:19;11.40;99.90
28761;DHT22;15917;50.014;8.352;2022-11-15T10:11:45;11.40;99.90
28761;DHT22;15917;50.014;8.352;2022-11-15T10:14:15;11.40;99.90
28761;DHT22;15917;50.014;8.352;2022-11-15T10:16:50;11.40;99.90
28761;DHT22;15917;50.014;8.352;2022-11-15T10:22:44;11.30;99.90
28761;DHT22;15917;50.014;8.352;2022-11-15T10:25:15;11.30;99.90
28761;DHT22;15917;50.014;8.352;2022-11-15T10:27:43;11.40;99.90
28761;DHT22;15917;50.014;8.352;2022-11-15T10:30:16;11.40;99.90
28761;DHT22;15917;50.014;8.352;2022-11-15T10:32:44;11.40;99.90
28761;DHT22;15917;50.014;8.352;2022-11-15T10:35:18;11.50;99.90
28761;DHT22;15917;50.014;8.352;2022-11-15T10:37:44;11.50;99.90
28761;DHT22;15917;50.014;8.352;2022-11-15T10:40:17;11.50;99.90
28761;DHT22;15917;50.014;8.352;2022-11-15T10:42:44;11.50;99.90
28761;DHT22;15917;50.014;8.352;2022-11-15T10:45:30;11.50;99.90
28761;DHT22;15917;50.014;8.352;2022-11-15T10:50:37;11.60;99.90
28761;DHT22;15917;50.014;8.352;2022-11-15T10:53:04;11.60;99.90
28761;DHT22;15917;50.014;8.352;2022-11-15T10:55:48;11.70;99.90
28761;DHT22;15917;50.014;8.352;2022-11-15T10:58:38;11.70;99.90
28761;DHT22;15917;50.014;8.352;2022-11-15T11:01:19;11.80;99.90
28761;DHT22;15917;50.014;8.352;2022-11-15T11:03:59;11.90;99.90
28761;DHT22;15917;50.014;8.352;2022-11-15T11:06:25;12.00;99.90
28761;DHT22;15917;50.014;8.352;2022-11-15T11:08:59;12.10;99.90
28761;DHT22;15917;50.014;8.352;2022-11-15T11:11:44;12.10;99.90
28761;DHT22;15917;50.014;8.352;2022-11-15T11:14:24;12.10;99.90
28761;DHT22;15917;50.014;8.352;2022-11-15T11:16:55;12.50;99.90
28761;DHT22;15917;50.014;8.352;2022-11-15T11:22:17;12.90;99.90
28761;DHT22;15917;50.014;8.352;2022-11-15T11:41:27;12.90;99.90
28761;DHT22;15917;50.014;8.352;2022-11-15T11:44:10;12.70;99.90
28761;DHT22;15917;50.014;8.352;2022-11-15T11:47:19;12.60;99.90
28761;DHT22;15917;50.014;8.352;2022-11-15T11:49:56;12.50;99.90
28761;DHT22;15917;50.014;8.352;2022-11-15T11:55:15;12.50;99.90
28761;DHT22;15917;50.014;8.352;2022-11-15T12:00:20;12.40;99.90
28761;DHT22;15917;50.014;8.352;2022-11-15T12:05:50;12.50;99.90
28761;DHT22;15917;50.014;8.352;2022-11-15T12:08:36;12.50;99.90
28761;DHT22;15917;50.014;8.352;2022-11-15T12:14:00;12.60;99.90
28761;DHT22;15917;50.014;8.352;2022-11-15T12:16:28;12.70;99.90
28761;DHT22;15917;50.014;8.352;2022-11-15T12:18:55;12.70;99.90
28761;DHT22;15917;50.014;8.352;2022-11-15T12:21:34;12.70;99.90
28761;DHT22;15917;50.014;8.352;2022-11-15T12:24:06;12.60;99.90
28761;DHT22;15917;50.014;8.352;2022-11-15T12:26:46;12.60;99.90
28761;DHT22;15917;50.014;8.352;2022-11-15T12:29:26;12.60;99.90
28761;DHT22;15917;50.014;8.352;2022-11-15T12:31:55;12.50;99.90
28761;DHT22;15917;50.014;8.352;2022-11-15T12:36:49;12.50;99.90
28761;DHT22;15917;50.014;8.352;2022-11-15T12:39:16;12.60;99.90
28761;DHT22;15917;50.014;8.352;2022-11-15T12:59:55;12.60;99.90
28761;DHT22;15917;50.014;8.352;2022-11-15T13:02:24;12.60;99.90
28761;DHT22;15917;50.014;8.352;2022-11-15T13:04:53;12.60;99.90
28761;DHT22;15917;50.014;8.352;2022-11-15T13:17:53;12.70;99.90
28761;DHT22;15917;50.014;8.352;2022-11-15T13:20:30;12.70;99.90
28761;DHT22;15917;50.014;8.352;2022-11-15T13:23:09;12.70;99.90
28761;DHT22;15917;50.014;8.352;2022-11-15T13:28:03;12.70;99.90
28761;DHT22;15917;50.014;8.352;2022-11-15T13:30:35;12.70;99.90
28761;DHT22;15917;50.014;8.352;2022-11-15T13:33:13;12.80;99.90
28761;DHT22;15917;50.014;8.352;2022-11-15T13:35:41;12.70;99.90
28761;DHT22;15917;50.014;8.352;2022-11-15T13:38:33;12.80;99.90
28761;DHT22;15917;50.014;8.352;2022-11-15T13:41:10;12.70;99.90
28761;DHT22;15917;50.014;8.352;2022-11-15T13:43:36;12.70;99.90
28761;DHT22;15917;50.014;8.352;2022-11-15T13:46:50;12.70;99.90
28761;DHT22;15917;50.014;8.352;2022-11-15T13:49:10;12.70;99.90
28761;DHT22;15917;50.014;8.352;2022-11-15T13:51:53;12.80;99.90
28761;DHT22;15917;50.014;8.352;2022-11-15T13:54:36;12.70;99.90
28761;DHT22;15917;50.014;8.352;2022-11-15T13:57:17;12.80;99.90
28761;DHT22;15917;50.014;8.352;2022-11-15T13:59:53;12.80;99.90
28761;DHT22;15917;50.014;8.352;2022-11-15T14:02:25;12.80;99.90
28761;DHT22;15917;50.014;8.352;2022-11-15T14:04:55;12.80;99.90
28761;DHT22;15917;50.014;8.352;2022-11-15T14:07:24;12.80;99.90
28761;DHT22;15917;50.014;8.352;2022-11-15T14:09:50;12.80;99.90
28761;DHT22;15917;50.014;8.352;2022-11-15T14:12:30;13.00;99.90
28761;DHT22;15917;50.014;8.352;2022-11-15T14:14:57;13.30;99.90
28761;DHT22;15917;50.014;8.352;2022-11-15T14:19:56;13.30;99.90
28761;DHT22;15917;50.014;8.352;2022-11-15T14:22:23;13.20;99.90
28761;DHT22;15917;50.014;8.352;2022-11-15T14:25:20;13.20;99.90
28761;DHT22;15917;50.014;8.352;2022-11-15T14:28:14;13.10;99.90
28761;DHT22;15917;50.014;8.352;2022-11-15T14:30:41;13.10;99.90
28761;DHT22;15917;50.014;8.352;2022-11-15T14:35:52;13.00;99.90
28761;DHT22;15917;50.014;8.352;2022-11-15T14:38:18;13.00;99.90
28761;DHT22;15917;50.014;8.352;2022-11-15T14:40:44;13.00;99.90
28761;DHT22;15917;50.014;8.352;2022-11-15T14:43:11;13.00;99.90
28761;DHT22;15917;50.014;8.352;2022-11-15T14:45:37;13.00;99.90
28761;DHT22;15917;50.014;8.352;2022-11-15T14:48:03;13.00;99.90
28761;DHT22;15917;50.014;8.352;2022-11-15T14:50:29;13.00;99.90
28761;DHT22;15917;50.014;8.352;2022-11-15T14:52:55;13.00;99.90
28761;DHT22;15917;50.014;8.352;2022-11-15T14:55:26;12.90;99.90
28761;DHT22;15917;50.014;8.352;2022-11-15T14:57:54;12.90;99.90
28761;DHT22;15917;50.014;8.352;2022-11-15T15:00:21;12.90;99.90
28761;DHT22;15917;50.014;8.352;2022-11-15T15:02:48;12.90;99.90
28761;DHT22;15917;50.014;8.352;2022-11-15T15:05:20;12.90;99.90
28761;DHT22;15917;50.014;8.352;2022-11-15T15:07:46;12.90;99.90
28761;DHT22;15917;50.014;8.352;2022-11-15T15:10:13;12.80;99.90
28761;DHT22;15917;50.014;8.352;2022-11-15T15:12:40;12.80;99.90
28761;DHT22;15917;50.014;8.352;2022-11-15T15:15:17;12.80;99.90
28761;DHT22;15917;50.014;8.352;2022-11-15T15:17:43;12.80;99.90
28761;DHT22;15917;50.014;8.352;2022-11-15T15:20:09;12.80;99.90
28761;DHT22;15917;50.014;8.352;2022-11-15T15:22:35;12.80;99.90
28761;DHT22;15917;50.014;8.352;2022-11-15T15:25:01;12.80;99.90
28761;DHT22;15917;50.014;8.352;2022-11-15T15:27:28;12.70;99.90
28761;DHT22;15917;50.014;8.352;2022-11-15T15:29:53;12.70;99.90
28761;DHT22;15917;50.014;8.352;2022-11-15T15:32:19;12.80;99.90
28761;DHT22;15917;50.014;8.352;2022-11-15T15:34:44;12.70;99.90
28761;DHT22;15917;50.014;8.352;2022-11-15T15:37:24;12.70;99.90
28761;DHT22;15917;50.014;8.352;2022-11-15T15:39:54;12.70;99.90
28761;DHT22;15917;50.014;8.352;2022-11-15T15:42:21;12.60;99.90
28761;DHT22;15917;50.014;8.352;2022-11-15T15:44:48;12.60;99.90
28761;DHT22;15917;50.014;8.352;2022-11-15T15:47:19;12.60;99.90
28761;DHT22;15917;50.014;8.352;2022-11-15T15:49:46;12.60;99.90
28761;DHT22;15917;50.014;8.352;2022-11-15T15:52:11;12.60;99.90
28761;DHT22;15917;50.014;8.352;2022-11-15T15:54:38;12.60;99.90
28761;DHT22;15917;50.014;8.352;2022-11-15T15:57:04;12.60;99.90
28761;DHT22;15917;50.014;8.352;2022-11-15T15:59:31;12.60;99.90
28761;DHT22;15917;50.014;8.352;2022-11-15T16:01:57;12.50;99.90
28761;DHT22;15917;50.014;8.352;2022-11-15T16:04:22;12.50;99.90
28761;DHT22;15917;50.014;8.352;2022-11-15T16:06:48;12.50;99.90
28761;DHT22;15917;50.014;8.352;2022-11-15T16:09:17;12.50;99.90
28761;DHT22;15917;50.014;8.352;2022-11-15T16:11:46;12.50;99.90
28761;DHT22;15917;50.014;8.352;2022-11-15T16:14:12;12.50;99.90
28761;DHT22;15917;50.014;8.352;2022-11-15T16:16:38;12.40;99.90
28761;DHT22;15917;50.014;8.352;2022-11-15T16:19:04;12.40;99.90
28761;DHT22;15917;50.014;8.352;2022-11-15T16:21:30;12.40;99.90
28761;DHT22;15917;50.014;8.352;2022-11-15T16:23:56;12.40;99.90
28761;DHT22;15917;50.014;8.352;2022-11-15T16:26:25;12.30;99.90
28761;DHT22;15917;50.014;8.352;2022-11-15T16:28:51;12.30;99.90
28761;DHT22;15917;50.014;8.352;2022-11-15T16:31:17;12.30;99.90
28761;DHT22;15917;50.014;8.352;2022-11-15T16:33:45;12.50;99.90
28761;DHT22;15917;50.014;8.352;2022-11-15T16:36:25;12.40;99.90
28761;DHT22;15917;50.014;8.352;2022-11-15T16:38:51;12.40;99.90
28761;DHT22;15917;50.014;8.352;2022-11-15T16:41:18;12.30;99.90
28761;DHT22;15917;50.014;8.352;2022-11-15T16:43:45;12.30;99.90
28761;DHT22;15917;50.014;8.352;2022-11-15T16:46:15;12.30;99.90
28761;DHT22;15917;50.014;8.352;2022-11-15T16:48:41;12.20;99.90
28761;DHT22;15917;50.014;8.352;2022-11-15T16:51:07;12.20;99.90
28761;DHT22;15917;50.014;8.352;2022-11-15T16:53:33;12.20;99.90
28761;DHT22;15917;50.014;8.352;2022-11-15T16:55:59;12.20;99.90
28761;DHT22;15917;50.014;8.352;2022-11-15T16:58:24;12.20;99.90
28761;DHT22;15917;50.014;8.352;2022-11-15T17:00:54;12.20;99.90
28761;DHT22;15917;50.014;8.352;2022-11-15T17:03:22;12.20;99.90
28761;DHT22;15917;50.014;8.352;2022-11-15T17:05:48;12.20;99.90
28761;DHT22;15917;50.014;8.352;2022-11-15T17:08:14;12.20;99.90
28761;DHT22;15917;50.014;8.352;2022-11-15T17:10:40;12.20;99.90
28761;DHT22;15917;50.014;8.352;2022-11-15T17:13:09;12.20;99.90
28761;DHT22;15917;50.014;8.352;2022-11-15T17:15:36;12.20;99.90
28761;DHT22;15917;50.014;8.352;2022-11-15T17:18:02;12.20;99.90
28761;DHT22;15917;50.014;8.352;2022-11-15T17:20:27;12.20;99.90
28761;DHT22;15917;50.014;8.352;2022-11-15T17:22:53;12.20;99.90
28761;DHT22;15917;50.014;8.352;2022-11-15T17:25:19;12.10;99.90
28761;DHT22;15917;50.014;8.352;2022-11-15T17:27:45;12.10;99.90
28761;DHT22;15917;50.014;8.352;2022-11-15T17:30:14;12.10;99.90
28761;DHT22;15917;50.014;8.352;2022-11-15T17:32:41;12.10;99.90
28761;DHT22;15917;50.014;8.352;2022-11-15T17:35:08;12.10;99.90
28761;DHT22;15917;50.014;8.352;2022-11-15T17:37:35;12.10;99.90
28761;DHT22;15917;50.014;8.352;2022-11-15T17:40:01;12.10;99.90
28761;DHT22;15917;50.014;8.352;2022-11-15T17:42:27;12.10;99.90
28761;DHT22;15917;50.014;8.352;2022-11-15T17:44:52;12.10;99.90
28761;DHT22;15917;50.014;8.352;2022-11-15T17:47:18;12.10;99.90
28761;DHT22;15917;50.014;8.352;2022-11-15T17:49:43;12.10;99.90
28761;DHT22;15917;50.014;8.352;2022-11-15T17:52:09;12.10;99.90
28761;DHT22;15917;50.014;8.352;2022-11-15T17:54:35;12.10;99.90
28761;DHT22;15917;50.014;8.352;2022-11-15T17:57:01;12.10;99.90
28761;DHT22;15917;50.014;8.352;2022-11-15T17:59:26;12.10;99.90
28761;DHT22;15917;50.014;8.352;2022-11-15T18:01:52;12.10;99.90
28761;DHT22;15917;50.014;8.352;2022-11-15T18:04:18;12.10;99.90
28761;DHT22;15917;50.014;8.352;2022-11-15T18:06:44;12.10;99.90
28761;DHT22;15917;50.014;8.352;2022-11-15T18:09:10;12.10;99.90
28761;DHT22;15917;50.014;8.352;2022-11-15T18:11:38;12.10;99.90
28761;DHT22;15917;50.014;8.352;2022-11-15T18:14:13;12.10;99.90
28761;DHT22;15917;50.014;8.352;2022-11-15T18:16:39;12.10;99.90
28761;DHT22;15917;50.014;8.352;2022-11-15T18:19:05;12.10;99.90
28761;DHT22;15917;50.014;8.352;2022-11-15T18:21:35;12.10;99.90
28761;DHT22;15917;50.014;8.352;2022-11-15T18:24:21;12.10;99.90
28761;DHT22;15917;50.014;8.352;2022-11-15T18:26:47;12.10;99.90
28761;DHT22;15917;50.014;8.352;2022-11-15T18:29:13;12.20;99.90
28761;DHT22;15917;50.014;8.352;2022-11-15T18:31:38;12.20;99.90
28761;DHT22;15917;50.014;8.352;2022-11-15T18:34:04;12.20;99.90
28761;DHT22;15917;50.014;8.352;2022-11-15T18:36:30;12.10;99.90
28761;DHT22;15917;50.014;8.352;2022-11-15T18:39:01;12.10;99.90